createdAt,value
2018-12-12T00:00:16.380Z,24.22
2018-12-12T00:02:45.059Z,24.21
2018-12-12T00:05:13.692Z,24.21
2018-12-12T00:07:42.530Z,24.20
2018-12-12T00:10:15.433Z,24.20
2018-12-12T00:12:44.340Z,24.19
2018-12-12T00:15:13.098Z,24.19
2018-12-12T00:17:42.003Z,24.19
2018-12-12T00:20:11.073Z,24.18
2018-12-12T00:22:40.021Z,24.19
2018-12-12T00:25:08.739Z,24.19
2018-12-12T00:27:37.526Z,24.18
2018-12-12T00:30:06.898Z,24.18
2018-12-12T00:32:35.882Z,24.17
2018-12-12T00:35:05.347Z,24.17
2018-12-12T00:37:34.259Z,24.16
2018-12-12T00:40:02.940Z,24.16
2018-12-12T00:42:31.811Z,24.15
2018-12-12T00:45:00.383Z,24.16
2018-12-12T00:47:29.197Z,24.16
2018-12-12T00:49:57.833Z,24.15
2018-12-12T00:52:26.624Z,24.15
2018-12-12T00:54:55.388Z,24.14
2018-12-12T00:57:24.451Z,24.15
2018-12-12T00:59:53.168Z,24.15
2018-12-12T01:02:21.903Z,24.14
2018-12-12T01:04:50.758Z,24.13
2018-12-12T01:07:19.593Z,24.14
2018-12-12T01:09:48.258Z,24.13
2018-12-12T01:12:16.884Z,24.13
2018-12-12T01:14:45.774Z,24.13
2018-12-12T01:17:14.342Z,24.13
2018-12-12T01:19:43.077Z,24.13
2018-12-12T01:22:12.250Z,24.12
2018-12-12T01:24:41.225Z,24.13
2018-12-12T01:27:10.077Z,24.13
2018-12-12T01:29:38.806Z,24.12
2018-12-12T01:32:07.515Z,24.12
2018-12-12T01:34:36.288Z,24.12
2018-12-12T01:37:05.506Z,24.12
2018-12-12T01:39:34.251Z,24.12
2018-12-12T01:42:03.020Z,24.12
2018-12-12T01:44:31.930Z,24.12
2018-12-12T01:47:00.727Z,24.12
2018-12-12T01:49:29.660Z,24.12
2018-12-12T01:51:58.340Z,24.11
2018-12-12T01:54:26.985Z,24.11
2018-12-12T01:56:55.819Z,24.11
2018-12-12T01:59:24.453Z,24.11
2018-12-12T02:01:53.153Z,24.10
2018-12-12T02:04:21.836Z,24.11
2018-12-12T02:06:50.632Z,24.11
2018-12-12T02:09:19.302Z,24.10
2018-12-12T02:11:48.149Z,24.10
2018-12-12T02:14:16.903Z,24.10
2018-12-12T02:16:45.518Z,24.11
2018-12-12T02:19:14.099Z,24.11
2018-12-12T02:21:42.947Z,24.10
2018-12-12T02:24:11.647Z,24.11
2018-12-12T02:26:40.474Z,24.10
2018-12-12T02:29:09.168Z,24.10
2018-12-12T02:31:37.943Z,24.11
2018-12-12T02:34:06.623Z,24.10
2018-12-12T02:36:35.395Z,24.09
2018-12-12T02:39:05.077Z,24.10
2018-12-12T02:41:33.784Z,24.09
2018-12-12T02:44:02.629Z,24.10
2018-12-12T02:46:31.290Z,24.09
2018-12-12T02:49:00.098Z,24.10
2018-12-12T02:51:28.690Z,24.10
2018-12-12T02:53:57.871Z,24.10
2018-12-12T02:56:26.624Z,24.10
2018-12-12T02:58:55.404Z,24.10
2018-12-12T03:01:24.258Z,24.09
2018-12-12T03:03:53.331Z,24.09
2018-12-12T03:06:22.035Z,24.09
2018-12-12T03:08:50.717Z,24.10
2018-12-12T03:11:24.163Z,24.09
2018-12-12T03:13:53.607Z,24.10
2018-12-12T03:16:22.568Z,24.08
2018-12-12T03:18:51.257Z,24.10
2018-12-12T03:21:19.827Z,24.09
2018-12-12T03:23:48.532Z,24.08
2018-12-12T03:26:17.202Z,24.08
2018-12-12T03:28:46.157Z,24.09
2018-12-12T03:31:14.864Z,24.09
2018-12-12T03:33:43.782Z,24.09
2018-12-12T03:36:12.453Z,24.08
2018-12-12T03:38:41.304Z,24.09
2018-12-12T03:41:10.035Z,24.09
2018-12-12T03:43:38.685Z,24.08
2018-12-12T03:46:07.415Z,24.08
2018-12-12T03:48:36.421Z,24.08
2018-12-12T03:51:05.168Z,24.08
2018-12-12T03:53:34.105Z,24.08
2018-12-12T03:56:02.805Z,24.08
2018-12-12T03:58:31.684Z,24.08
2018-12-12T04:01:00.428Z,24.08
2018-12-12T04:03:29.201Z,24.06
2018-12-12T04:05:57.926Z,24.07
2018-12-12T04:08:26.911Z,24.07
2018-12-12T04:10:55.842Z,24.06
2018-12-12T04:13:24.769Z,24.06
2018-12-12T04:15:53.511Z,24.04
2018-12-12T04:18:22.288Z,24.06
2018-12-12T04:20:50.989Z,24.05
2018-12-12T04:23:19.840Z,24.05
2018-12-12T04:25:48.628Z,24.00
2018-12-12T04:28:17.583Z,24.04
2018-12-12T04:30:46.359Z,24.05
2018-12-12T04:33:15.296Z,24.05
2018-12-12T04:35:44.184Z,24.04
2018-12-12T04:38:12.979Z,24.04
2018-12-12T04:40:41.609Z,24.04
2018-12-12T04:43:10.387Z,24.04
2018-12-12T04:45:39.180Z,24.04
2018-12-12T04:48:07.968Z,24.04
2018-12-12T04:50:36.871Z,24.04
2018-12-12T04:53:05.575Z,24.04
2018-12-12T04:55:34.163Z,24.02
2018-12-12T04:58:02.763Z,24.03
2018-12-12T05:00:31.418Z,24.02
2018-12-12T05:03:00.318Z,24.02
2018-12-12T05:05:29.103Z,24.03
2018-12-12T05:07:57.693Z,24.02
2018-12-12T05:10:26.411Z,24.02
2018-12-12T05:12:55.116Z,24.02
2018-12-12T05:15:23.834Z,24.02
2018-12-12T05:17:53.224Z,24.02
2018-12-12T05:20:22.147Z,24.02
2018-12-12T05:22:50.725Z,24.02
2018-12-12T05:25:19.520Z,24.01
2018-12-12T05:27:48.503Z,24.02
2018-12-12T05:30:17.095Z,24.02
2018-12-12T05:32:45.863Z,24.02
2018-12-12T05:35:14.452Z,24.02
2018-12-12T05:37:50.735Z,24.02
2018-12-12T05:40:14.434Z,24.01
2018-12-12T05:42:43.428Z,24.01
2018-12-12T05:45:12.231Z,24.01
2018-12-12T05:47:41.095Z,24.01
2018-12-12T05:50:09.723Z,24.01
2018-12-12T05:52:38.339Z,24.02
2018-12-12T05:55:07.309Z,24.02
2018-12-12T05:57:36.124Z,24.01
2018-12-12T06:00:05.584Z,24.01
2018-12-12T06:02:34.584Z,24.01
2018-12-12T06:05:03.571Z,24.02
2018-12-12T06:07:32.505Z,24.02
2018-12-12T06:10:01.144Z,24.02
2018-12-12T06:12:29.762Z,24.02
2018-12-12T06:14:58.566Z,24.03
2018-12-12T06:17:27.551Z,24.02
2018-12-12T06:19:56.855Z,24.04
2018-12-12T06:22:26.008Z,24.03
2018-12-12T06:24:54.644Z,24.05
2018-12-12T06:27:23.452Z,24.05
2018-12-12T06:29:52.326Z,24.05
2018-12-12T06:32:21.126Z,24.05
2018-12-12T06:34:49.946Z,24.06
2018-12-12T06:37:18.805Z,24.06
2018-12-12T06:39:47.585Z,24.07
2018-12-12T06:42:16.351Z,24.06
2018-12-12T06:44:45.152Z,24.06
2018-12-12T06:47:14.168Z,24.06
2018-12-12T06:49:42.792Z,24.06
2018-12-12T06:52:11.394Z,24.06
2018-12-12T06:54:40.123Z,24.07
2018-12-12T06:57:08.816Z,24.07
2018-12-12T06:59:37.715Z,24.05
2018-12-12T07:02:06.283Z,24.05
2018-12-12T07:04:35.386Z,24.06
2018-12-12T07:07:04.910Z,24.05
2018-12-12T07:09:33.574Z,24.05
2018-12-12T07:12:02.459Z,24.05
2018-12-12T07:14:31.395Z,24.06
2018-12-12T07:17:00.006Z,24.04
2018-12-12T07:19:28.708Z,24.06
2018-12-12T07:21:57.751Z,24.07
2018-12-12T07:24:26.376Z,24.07
2018-12-12T07:26:54.976Z,24.08
2018-12-12T07:29:23.596Z,24.09
2018-12-12T07:31:52.188Z,24.09
2018-12-12T07:34:20.977Z,24.10
2018-12-12T07:36:49.535Z,24.11
2018-12-12T07:39:18.320Z,24.12
2018-12-12T07:41:47.460Z,24.13
2018-12-12T07:44:16.664Z,24.13
2018-12-12T07:46:45.477Z,24.14
2018-12-12T07:49:14.498Z,24.14
2018-12-12T07:51:43.351Z,24.14
2018-12-12T07:54:12.944Z,24.15
2018-12-12T07:56:41.558Z,24.15
2018-12-12T07:59:10.185Z,24.14
2018-12-12T08:01:38.968Z,24.15
2018-12-12T08:04:07.570Z,24.15
2018-12-12T08:06:36.210Z,24.16
2018-12-12T08:09:07.831Z,24.13
2018-12-12T08:11:36.535Z,24.16
2018-12-12T08:14:05.965Z,24.16
2018-12-12T08:16:34.792Z,24.16
2018-12-12T08:19:03.631Z,24.16
2018-12-12T08:21:32.402Z,24.17
2018-12-12T08:24:01.203Z,24.16
2018-12-12T08:26:30.078Z,24.17
2018-12-12T08:28:58.828Z,24.17
2018-12-12T08:31:27.564Z,24.16
2018-12-12T08:33:56.246Z,24.16
2018-12-12T08:36:25.359Z,24.16
2018-12-12T08:38:54.199Z,24.15
2018-12-12T08:41:22.931Z,24.16
2018-12-12T08:43:51.805Z,24.14
2018-12-12T08:46:20.612Z,24.14
2018-12-12T08:48:49.327Z,24.14
2018-12-12T08:51:18.149Z,24.15
2018-12-12T08:53:46.875Z,24.14
2018-12-12T08:56:15.864Z,24.14
2018-12-12T08:58:44.758Z,24.13
2018-12-12T09:01:13.821Z,24.14
2018-12-12T09:03:42.714Z,24.13
2018-12-12T09:06:12.809Z,24.13
2018-12-12T09:08:41.796Z,24.13
2018-12-12T09:11:10.719Z,24.12
2018-12-12T09:13:39.539Z,24.12
2018-12-12T09:16:08.591Z,24.12
2018-12-12T09:18:37.440Z,24.12
2018-12-12T09:21:06.125Z,24.12
2018-12-12T09:23:34.914Z,24.11
2018-12-12T09:26:03.680Z,24.11
2018-12-12T09:28:32.585Z,24.11
2018-12-12T09:31:01.614Z,24.11
2018-12-12T09:33:30.623Z,24.10
2018-12-12T09:35:59.628Z,24.11
2018-12-12T09:38:28.359Z,24.10
2018-12-12T09:40:57.265Z,24.10
2018-12-12T09:43:25.883Z,24.10
2018-12-12T09:45:54.836Z,24.11
2018-12-12T09:48:23.743Z,24.09
2018-12-12T09:50:52.738Z,24.10
2018-12-12T09:53:21.555Z,24.09
2018-12-12T09:55:50.500Z,24.09
2018-12-12T09:58:19.233Z,24.09
2018-12-12T10:00:48.228Z,24.09
2018-12-12T10:03:17.068Z,24.08
2018-12-12T10:05:45.705Z,24.08
2018-12-12T10:08:14.585Z,24.08
2018-12-12T10:10:43.650Z,24.08
2018-12-12T10:13:12.542Z,24.08
2018-12-12T10:15:41.280Z,24.07
2018-12-12T10:18:10.273Z,24.06
2018-12-12T10:20:39.130Z,24.06
2018-12-12T10:23:08.242Z,24.07
2018-12-12T10:25:37.237Z,24.07
2018-12-12T10:28:06.152Z,24.06
2018-12-12T10:30:34.947Z,24.06
2018-12-12T10:33:03.791Z,24.06
2018-12-12T10:35:32.508Z,24.06
2018-12-12T10:38:01.599Z,24.07
2018-12-12T10:40:30.473Z,24.06
2018-12-12T10:42:59.401Z,24.06
2018-12-12T10:45:28.240Z,24.05
2018-12-12T10:47:56.971Z,24.06
2018-12-12T10:50:25.968Z,24.06
2018-12-12T10:52:54.911Z,24.05
2018-12-12T10:55:23.802Z,24.05
2018-12-12T10:57:52.732Z,24.06
2018-12-12T11:00:21.795Z,24.04
2018-12-12T11:02:55.791Z,24.04
2018-12-12T11:05:24.776Z,24.05
2018-12-12T11:07:53.565Z,24.04
2018-12-12T11:10:22.365Z,24.04
2018-12-12T11:12:51.217Z,24.04
2018-12-12T11:15:20.011Z,24.04
2018-12-12T11:17:48.811Z,24.03
2018-12-12T11:20:17.813Z,24.04
2018-12-12T11:22:46.709Z,24.04
2018-12-12T11:25:15.434Z,24.03
2018-12-12T11:27:44.428Z,24.04
2018-12-12T11:30:13.179Z,24.04
2018-12-12T11:32:41.822Z,24.04
2018-12-12T11:35:11.173Z,24.04
2018-12-12T11:37:40.295Z,24.03
2018-12-12T11:40:09.292Z,24.03
2018-12-12T11:42:38.125Z,24.02
2018-12-12T11:45:07.242Z,24.02
2018-12-12T11:47:36.165Z,24.02
2018-12-12T11:50:05.361Z,24.02
2018-12-12T11:52:34.165Z,24.01
2018-12-12T11:55:03.225Z,24.02
2018-12-12T11:57:32.548Z,24.02
2018-12-12T12:00:01.532Z,24.02
2018-12-12T12:02:35.458Z,24.01
2018-12-12T12:05:01.402Z,24.02
2018-12-12T12:07:30.380Z,24.01
2018-12-12T12:09:59.166Z,24.01
2018-12-12T12:12:28.103Z,24.01
2018-12-12T12:14:56.868Z,24.00
2018-12-12T12:17:25.928Z,24.00
2018-12-12T12:19:54.876Z,24.01
2018-12-12T12:22:23.973Z,24.02
2018-12-12T12:24:52.872Z,24.00
2018-12-12T12:27:21.971Z,24.00
2018-12-12T12:29:50.622Z,24.00
2018-12-12T12:32:19.438Z,24.01
2018-12-12T12:34:48.391Z,24.01
2018-12-12T12:37:17.318Z,24.00
2018-12-12T12:39:46.261Z,24.00
2018-12-12T12:42:15.263Z,24.00
2018-12-12T12:44:43.958Z,24.01
2018-12-12T12:47:13.416Z,24.00
2018-12-12T12:49:42.026Z,24.00
2018-12-12T12:52:10.974Z,24.00
2018-12-12T12:54:39.932Z,24.00
2018-12-12T12:57:08.824Z,24.00
2018-12-12T12:59:37.920Z,24.00
2018-12-12T13:02:06.697Z,24.00
2018-12-12T13:04:35.662Z,24.00
2018-12-12T13:07:04.496Z,24.00
2018-12-12T13:09:33.087Z,24.01
2018-12-12T13:12:01.909Z,24.00
2018-12-12T13:14:31.058Z,24.01
2018-12-12T13:16:59.746Z,24.01
2018-12-12T13:19:28.678Z,24.01
2018-12-12T13:21:57.283Z,24.02
2018-12-12T13:24:26.075Z,24.02
2018-12-12T13:26:54.907Z,24.03
2018-12-12T13:29:23.872Z,24.03
2018-12-12T13:31:52.778Z,24.04
2018-12-12T13:34:21.531Z,24.04
2018-12-12T13:36:50.288Z,24.05
2018-12-12T13:39:19.167Z,24.05
2018-12-12T13:41:47.952Z,24.05
2018-12-12T13:44:16.676Z,24.04
2018-12-12T13:46:45.608Z,24.05
2018-12-12T13:49:14.424Z,24.06
2018-12-12T13:51:43.142Z,24.06
2018-12-12T13:54:12.739Z,24.06
2018-12-12T13:56:41.767Z,24.06
2018-12-12T13:59:10.546Z,24.05
2018-12-12T14:01:39.554Z,24.06
2018-12-12T14:04:08.451Z,24.06
2018-12-12T14:06:37.334Z,24.06
2018-12-12T14:09:07.295Z,24.05
2018-12-12T14:11:36.103Z,24.07
2018-12-12T14:14:04.925Z,24.06
2018-12-12T14:16:33.941Z,24.06
2018-12-12T14:19:03.441Z,24.05
2018-12-12T14:21:32.357Z,24.05
2018-12-12T14:24:01.267Z,24.06
2018-12-12T14:26:30.144Z,24.01
2018-12-12T14:28:59.083Z,24.05
2018-12-12T14:31:27.997Z,24.04
2018-12-12T14:33:56.874Z,24.04
2018-12-12T14:36:25.893Z,24.04
2018-12-12T14:38:54.704Z,24.03
2018-12-12T14:41:23.548Z,24.03
2018-12-12T14:43:52.496Z,24.03
2018-12-12T14:46:21.436Z,24.04
2018-12-12T14:48:50.435Z,24.02
2018-12-12T14:51:19.277Z,24.03
2018-12-12T14:53:48.064Z,24.03
2018-12-12T14:56:16.917Z,24.01
2018-12-12T14:58:45.749Z,24.01
2018-12-12T15:01:14.683Z,24.02
2018-12-12T15:03:43.690Z,24.02
2018-12-12T15:06:12.649Z,24.01
2018-12-12T15:08:41.345Z,24.02
2018-12-12T15:11:10.324Z,24.02
2018-12-12T15:13:39.125Z,24.02
2018-12-12T15:16:08.043Z,24.02
2018-12-12T15:18:37.137Z,24.02
2018-12-12T15:21:06.001Z,24.01
2018-12-12T15:23:34.990Z,24.01
2018-12-12T15:26:03.762Z,24.02
2018-12-12T15:28:32.964Z,24.02
2018-12-12T15:31:02.147Z,24.02
2018-12-12T15:33:31.559Z,24.02
2018-12-12T15:36:00.557Z,24.01
2018-12-12T15:38:29.516Z,24.02
2018-12-12T15:40:58.544Z,24.02
2018-12-12T15:43:27.623Z,24.01
2018-12-12T15:45:56.628Z,24.03
2018-12-12T15:48:25.720Z,24.01
2018-12-12T15:50:54.626Z,24.02
2018-12-12T15:53:23.640Z,24.02
2018-12-12T15:55:53.066Z,24.03
2018-12-12T15:58:22.319Z,24.02
2018-12-12T16:00:51.423Z,24.03
2018-12-12T16:03:20.896Z,24.02
2018-12-12T16:05:49.952Z,24.01
2018-12-12T16:08:19.049Z,24.02
2018-12-12T16:10:48.308Z,24.01
2018-12-12T16:13:17.288Z,24.02
2018-12-12T16:15:46.205Z,24.02
2018-12-12T16:18:15.160Z,24.02
2018-12-12T16:20:44.362Z,24.01
2018-12-12T16:23:13.362Z,24.02
2018-12-12T16:25:42.596Z,24.01
2018-12-12T16:28:11.959Z,24.02
2018-12-12T16:30:41.854Z,24.02
2018-12-12T16:33:11.109Z,24.02
2018-12-12T16:35:40.148Z,24.03
2018-12-12T16:38:09.245Z,24.02
2018-12-12T16:40:38.306Z,24.03
2018-12-12T16:43:07.139Z,24.03
2018-12-12T16:45:36.039Z,24.02
2018-12-12T16:48:04.870Z,24.01
2018-12-12T16:50:33.991Z,24.00
2018-12-12T16:53:02.980Z,24.00
2018-12-12T16:55:32.015Z,24.00
2018-12-12T16:58:00.859Z,24.00
2018-12-12T17:00:29.901Z,24.00
2018-12-12T17:02:58.867Z,23.99
2018-12-12T17:05:27.862Z,24.00
2018-12-12T17:07:56.720Z,24.00
2018-12-12T17:10:25.697Z,24.00
2018-12-12T17:12:54.669Z,24.00
2018-12-12T17:15:23.574Z,23.99
2018-12-12T17:17:52.499Z,23.98
2018-12-12T17:20:21.566Z,23.98
2018-12-12T17:22:50.611Z,23.98
2018-12-12T17:25:19.594Z,23.98
2018-12-12T17:27:48.645Z,23.98
2018-12-12T17:30:17.472Z,23.97
2018-12-12T17:32:46.344Z,23.96
2018-12-12T17:35:15.427Z,23.97
2018-12-12T17:37:44.475Z,23.96
2018-12-12T17:40:13.578Z,23.95
2018-12-12T17:42:42.583Z,23.96
2018-12-12T17:45:11.702Z,23.95
2018-12-12T17:47:40.653Z,23.95
2018-12-12T17:50:09.724Z,23.94
2018-12-12T17:52:38.773Z,23.94
2018-12-12T17:55:07.839Z,23.93
2018-12-12T17:57:36.880Z,23.95
2018-12-12T18:00:07.570Z,23.94
2018-12-12T18:02:36.666Z,23.94
2018-12-12T18:05:05.963Z,23.93
2018-12-12T18:07:34.929Z,23.94
2018-12-12T18:10:03.859Z,23.94
2018-12-12T18:12:32.915Z,23.93
2018-12-12T18:15:01.994Z,23.94
2018-12-12T18:17:30.956Z,23.94
2018-12-12T18:19:59.780Z,23.92
2018-12-12T18:22:28.774Z,23.93
2018-12-12T18:24:57.464Z,23.93
2018-12-12T18:27:26.333Z,23.94
2018-12-12T18:29:55.331Z,23.93
2018-12-12T18:32:24.285Z,23.93
2018-12-12T18:34:53.325Z,23.93
2018-12-12T18:37:22.282Z,23.93
2018-12-12T18:39:51.311Z,23.93
2018-12-12T18:42:20.414Z,23.93
2018-12-12T18:44:49.357Z,23.93
2018-12-12T18:47:18.411Z,23.93
2018-12-12T18:49:47.312Z,23.93
2018-12-12T18:52:16.295Z,23.93
2018-12-12T18:54:45.255Z,23.94
2018-12-12T18:57:14.212Z,23.94
2018-12-12T18:59:43.268Z,23.94
2018-12-12T19:02:12.173Z,23.94
2018-12-12T19:04:41.247Z,23.95
2018-12-12T19:07:10.153Z,23.95
2018-12-12T19:09:39.154Z,23.98
2018-12-12T19:12:09.003Z,23.97
2018-12-12T19:14:41.973Z,23.97
2018-12-12T19:17:11.829Z,23.98
2018-12-12T19:19:40.733Z,23.98
2018-12-12T19:22:09.799Z,23.99
2018-12-12T19:24:38.724Z,23.98
2018-12-12T19:27:07.759Z,23.99
2018-12-12T19:29:36.714Z,24.00
2018-12-12T19:32:05.690Z,24.00
2018-12-12T19:34:34.697Z,24.00
2018-12-12T19:37:03.737Z,24.00
2018-12-12T19:39:32.823Z,24.01
2018-12-12T19:42:01.786Z,24.00
2018-12-12T19:44:30.684Z,24.01
2018-12-12T19:46:59.592Z,24.00
2018-12-12T19:49:28.459Z,24.01
2018-12-12T19:51:57.303Z,24.00
2018-12-12T19:54:26.461Z,24.01
2018-12-12T19:56:55.405Z,24.01
2018-12-12T19:59:24.514Z,24.01
2018-12-12T20:01:53.550Z,24.00
2018-12-12T20:04:22.514Z,24.01
2018-12-12T20:06:51.538Z,24.01
2018-12-12T20:09:20.476Z,24.00
2018-12-12T20:11:50.178Z,24.00
2018-12-12T20:14:19.355Z,24.00
2018-12-12T20:16:48.342Z,24.00
2018-12-12T20:19:17.401Z,24.00
2018-12-12T20:21:46.524Z,23.99
2018-12-12T20:24:15.472Z,23.98
2018-12-12T20:26:44.719Z,23.98
2018-12-12T20:29:14.000Z,23.97
2018-12-12T20:31:42.965Z,23.98
2018-12-12T20:34:12.783Z,23.98
2018-12-12T20:36:41.880Z,23.98
2018-12-12T20:39:11.045Z,23.98
2018-12-12T20:41:40.120Z,23.98
2018-12-12T20:44:09.168Z,23.97
2018-12-12T20:46:38.294Z,23.98
2018-12-12T20:49:07.300Z,23.98
2018-12-12T20:51:36.357Z,23.97
2018-12-12T20:54:05.268Z,23.98
2018-12-12T20:56:34.185Z,23.97
2018-12-12T20:59:03.227Z,23.96
2018-12-12T21:01:32.283Z,23.96
2018-12-12T21:04:01.637Z,23.97
2018-12-12T21:06:30.517Z,23.98
2018-12-12T21:13:55.048Z,23.96
2018-12-12T21:16:24.036Z,23.96
2018-12-12T21:18:53.295Z,23.97
2018-12-12T21:21:22.148Z,23.98
2018-12-12T21:23:51.448Z,23.97
2018-12-12T21:26:20.589Z,23.99
2018-12-12T21:28:49.287Z,24.00
2018-12-12T21:31:17.999Z,24.01
2018-12-12T21:33:46.733Z,24.02
2018-12-12T21:36:15.434Z,24.03
2018-12-12T21:38:44.123Z,24.04
2018-12-12T21:41:12.848Z,24.04
2018-12-12T21:43:41.573Z,24.05
2018-12-12T21:46:10.279Z,24.06
2018-12-12T21:48:39.053Z,24.07
2018-12-12T21:51:08.778Z,24.08
2018-12-12T21:53:37.477Z,24.09
2018-12-12T21:56:06.370Z,24.09
2018-12-12T21:58:35.152Z,24.11
2018-12-12T22:01:03.879Z,24.11
2018-12-12T22:03:32.550Z,24.12
2018-12-12T22:06:07.362Z,24.13
2018-12-12T22:08:32.083Z,24.13
2018-12-12T22:11:00.738Z,24.13
2018-12-12T22:13:29.420Z,24.14
2018-12-12T22:15:58.381Z,24.15
2018-12-12T22:18:27.498Z,24.15
2018-12-12T22:20:56.491Z,24.15
2018-12-12T22:23:25.780Z,24.15
2018-12-12T22:25:54.791Z,24.15
2018-12-12T22:28:23.487Z,24.14
2018-12-12T22:30:52.419Z,24.14
2018-12-12T22:33:21.259Z,24.14
2018-12-12T22:35:50.135Z,24.13
2018-12-12T22:38:19.047Z,24.12
2018-12-12T22:40:48.079Z,24.12
2018-12-12T22:43:17.022Z,24.11
2018-12-12T22:45:45.685Z,24.11
2018-12-12T22:48:20.334Z,24.12
2018-12-12T22:50:45.496Z,24.11
2018-12-12T22:53:14.125Z,24.12
2018-12-12T22:55:43.150Z,24.11
2018-12-12T22:58:12.168Z,24.12
2018-12-12T23:00:44.516Z,24.10
2018-12-12T23:03:13.484Z,24.11
2018-12-12T23:05:42.436Z,24.11
2018-12-12T23:08:11.566Z,24.10
2018-12-12T23:10:40.253Z,24.11
2018-12-12T23:13:08.828Z,24.10
2018-12-12T23:15:37.615Z,24.10
2018-12-12T23:18:06.415Z,24.10
2018-12-12T23:20:35.203Z,24.10
2018-12-12T23:23:03.884Z,24.10
2018-12-12T23:25:32.777Z,24.09
2018-12-12T23:28:01.427Z,24.09
2018-12-12T23:30:30.145Z,24.09
2018-12-12T23:32:58.962Z,24.08
2018-12-12T23:35:27.952Z,24.09
2018-12-12T23:37:56.836Z,24.08
2018-12-12T23:40:25.724Z,24.09
2018-12-12T23:42:54.668Z,24.06
2018-12-12T23:45:23.336Z,24.08
2018-12-12T23:47:51.947Z,24.09
2018-12-12T23:50:20.622Z,24.09
2018-12-12T23:52:49.502Z,24.08
2018-12-12T23:55:18.456Z,24.08
2018-12-12T23:57:47.168Z,24.08
